< < Back
Terminal Aerodrome Forecast


Current Version              Previous Versions:   1  2  3  4  5  6  7  8  9  

Terminal Aerodrome Forecast

232
FTUS42 KFFC 290520
TAFATL
TAF
KATL 290520Z 2906/3012 26006KT P6SM FEW080 BKN250
     FM291200 26005KT P6SM BKN015
     FM291500 28008KT P6SM SCT035
     FM291800 27010KT P6SM SCT050 PROB30 2919/2923 6SM -TSRA
      BKN035CB
     FM300100 26006KT P6SM SCT070=

Latest METAR

490
SAUS70 KWBC 290700 RRK
MTRATL
METAR KATL 290652Z 26006KT 10SM FEW150 SCT200 BKN250 24/22 A3003 RMK AO2
SLP155 T02440222


USA.gov is the U.S. government's official web portal to all federal, state and local government web resources and services.